Port Lincoln, Australia
Current Conditions -  °F | °C
As of 3:00 PM on Sunday 26 Oct 2014 (Local Time) from YWHA Reporting Station
Clear Clear  
Wind Chill: 91°   Ceiling: Unl
Heat Index: 91°   Visibility: 6mi
Dew Point: 48°   Wind: 16mph
Humidity: 23%   Direction: 360°N
Pressure: 29.68"   Gusts: NA
Location:  34.72°S, 135.86°E
Report Text: YWHA 260500Z AUTO 36014KT 9999 // NCD 33/09 Q1005
Loading
Personal Weather Stations






























Interactive Weather Map
Tropical Storm Tracking
New forecast layout! Learn more

10-Day Weather Forecast

Advertisements
Track Severe Weather on mobile